sensor_id;sensor_type;location;lat;lon;timestamp;pressure;altitude;pressure_sealevel;temperature;humidity
5988;BME280;3021;51.000;6.980;2023-07-20T00:02:11;68335.44;;;18.21;100.00
5988;BME280;3021;51.000;6.980;2023-07-20T00:04:37;68341.84;;;18.27;100.00
5988;BME280;3021;51.000;6.980;2023-07-20T00:07:03;68343.00;;;18.28;100.00
5988;BME280;3021;51.000;6.980;2023-07-20T00:09:28;68349.25;;;18.31;100.00
5988;BME280;3021;51.000;6.980;2023-07-20T00:11:54;68348.69;;;18.30;100.00
5988;BME280;3021;51.000;6.980;2023-07-20T00:14:19;68350.44;;;18.32;100.00
5988;BME280;3021;51.000;6.980;2023-07-20T00:16:45;68348.69;;;18.30;100.00
5988;BME280;3021;51.000;6.980;2023-07-20T00:19:12;68344.16;;;18.29;100.00
5988;BME280;3021;51.000;6.980;2023-07-20T00:21:37;68346.34;;;18.28;100.00
5988;BME280;3021;51.000;6.980;2023-07-20T00:24:06;68342.88;;;18.25;100.00
5988;BME280;3021;51.000;6.980;2023-07-20T00:26:31;68337.63;;;18.21;100.00
5988;BME280;3021;51.000;6.980;2023-07-20T00:28:56;68330.78;;;18.17;100.00
5988;BME280;3021;51.000;6.980;2023-07-20T00:31:22;68322.66;;;18.10;100.00
5988;BME280;3021;51.000;6.980;2023-07-20T00:33:47;68322.50;;;18.07;100.00
5988;BME280;3021;51.000;6.980;2023-07-20T00:36:13;68321.38;;;18.06;100.00
5988;BME280;3021;51.000;6.980;2023-07-20T00:38:39;68322.50;;;18.07;100.00
5988;BME280;3021;51.000;6.980;2023-07-20T00:41:04;68322.50;;;18.07;100.00
5988;BME280;3021;51.000;6.980;2023-07-20T00:43:30;68315.22;;;18.06;100.00
5988;BME280;3021;51.000;6.980;2023-07-20T00:45:55;68314.63;;;18.05;100.00
5988;BME280;3021;51.000;6.980;2023-07-20T00:48:21;68317.84;;;18.03;100.00
5988;BME280;3021;51.000;6.980;2023-07-20T00:50:47;68316.56;;;18.00;100.00
5988;BME280;3021;51.000;6.980;2023-07-20T00:53:13;68312.63;;;17.99;100.00
5988;BME280;3021;51.000;6.980;2023-07-20T00:55:39;68309.72;;;17.96;100.00
5988;BME280;3021;51.000;6.980;2023-07-20T00:58:04;68303.47;;;17.93;100.00
5988;BME280;3021;51.000;6.980;2023-07-20T01:00:30;68305.66;;;17.92;100.00
5988;BME280;3021;51.000;6.980;2023-07-20T01:02:55;68305.66;;;17.92;100.00
5988;BME280;3021;51.000;6.980;2023-07-20T01:05:27;68298.06;;;17.86;100.00
5988;BME280;3021;51.000;6.980;2023-07-20T01:08:03;68289.38;;;17.78;100.00
5988;BME280;3021;51.000;6.980;2023-07-20T01:10:41;68290.66;;;17.82;100.00
5988;BME280;3021;51.000;6.980;2023-07-20T01:13:10;68297.63;;;17.88;100.00
5988;BME280;3021;51.000;6.980;2023-07-20T01:15:36;68308.44;;;17.92;100.00
5988;BME280;3021;51.000;6.980;2023-07-20T01:18:01;68314.38;;;18.00;100.00
5988;BME280;3021;51.000;6.980;2023-07-20T01:20:27;68320.75;;;18.06;100.00
5988;BME280;3021;51.000;6.980;2023-07-20T01:26:38;68320.75;;;18.06;100.00
5988;BME280;3021;51.000;6.980;2023-07-20T01:31:41;68306.38;;;17.95;100.00
5988;BME280;3021;51.000;6.980;2023-07-20T01:34:08;68303.91;;;17.91;100.00
5988;BME280;3021;51.000;6.980;2023-07-20T01:36:37;68297.63;;;17.88;100.00
5988;BME280;3021;51.000;6.980;2023-07-20T01:39:03;68304.63;;;17.94;100.00
5988;BME280;3021;51.000;6.980;2023-07-20T01:41:29;68311.47;;;17.98;100.00
5988;BME280;3021;51.000;6.980;2023-07-20T01:43:57;68318.00;;;18.06;100.00
5988;BME280;3021;51.000;6.980;2023-07-20T01:46:23;68326.59;;;18.11;100.00
5988;BME280;3021;51.000;6.980;2023-07-20T01:48:49;68323.34;;;18.13;100.00
5988;BME280;3021;51.000;6.980;2023-07-20T01:51:15;68330.66;;;18.14;100.00
5988;BME280;3021;51.000;6.980;2023-07-20T01:53:42;68336.47;;;18.20;100.00
5988;BME280;3021;51.000;6.980;2023-07-20T01:56:08;68334.28;;;18.20;100.00
5988;BME280;3021;51.000;6.980;2023-07-20T01:58:33;68332.53;;;18.19;100.00
5988;BME280;3021;51.000;6.980;2023-07-20T02:00:58;68336.47;;;18.20;100.00
5988;BME280;3021;51.000;6.980;2023-07-20T02:03:24;68333.13;;;18.19;100.00
5988;BME280;3021;51.000;6.980;2023-07-20T02:05:51;68322.22;;;18.12;100.00
5988;BME280;3021;51.000;6.980;2023-07-20T02:08:17;68311.47;;;17.98;100.00
5988;BME280;3021;51.000;6.980;2023-07-20T02:10:45;68274.38;;;17.67;100.00
5988;BME280;3021;51.000;6.980;2023-07-20T02:13:11;68252.75;;;17.45;100.00
5988;BME280;3021;51.000;6.980;2023-07-20T02:15:36;68246.91;;;17.40;100.00
5988;BME280;3021;51.000;6.980;2023-07-20T02:18:01;68234.72;;;17.30;100.00
5988;BME280;3021;51.000;6.980;2023-07-20T02:20:28;68229.94;;;17.23;100.00
5988;BME280;3021;51.000;6.980;2023-07-20T02:22:53;68228.91;;;17.24;100.00
5988;BME280;3021;51.000;6.980;2023-07-20T02:25:19;68232.41;;;17.27;100.00
5988;BME280;3021;51.000;6.980;2023-07-20T02:27:44;68231.38;;;17.29;100.00
5988;BME280;3021;51.000;6.980;2023-07-20T02:30:10;68226.59;;;17.22;100.00
5988;BME280;3021;51.000;6.980;2023-07-20T02:32:35;68229.50;;;17.25;100.00
5988;BME280;3021;51.000;6.980;2023-07-20T02:35:01;68226.03;;;17.22;100.00
5988;BME280;3021;51.000;6.980;2023-07-20T02:37:28;68221.94;;;17.18;100.00
5988;BME280;3021;51.000;6.980;2023-07-20T02:39:54;68214.38;;;17.12;100.00
5988;BME280;3021;51.000;6.980;2023-07-20T02:42:19;68209.31;;;17.09;100.00
5988;BME280;3021;51.000;6.980;2023-07-20T02:44:47;68207.44;;;17.05;100.00
5988;BME280;3021;51.000;6.980;2023-07-20T02:47:13;68202.34;;;17.03;100.00
5988;BME280;3021;51.000;6.980;2023-07-20T02:49:38;68206.25;;;17.04;100.00
5988;BME280;3021;51.000;6.980;2023-07-20T02:52:04;68198.84;;;17.00;100.00
5988;BME280;3021;51.000;6.980;2023-07-20T02:54:30;68200.47;;;16.99;100.00
5988;BME280;3021;51.000;6.980;2023-07-20T02:56:55;68209.16;;;17.07;100.00
5988;BME280;3021;51.000;6.980;2023-07-20T02:59:21;68217.44;;;17.17;100.00
5988;BME280;3021;51.000;6.980;2023-07-20T03:01:46;68227.75;;;17.23;100.00
5988;BME280;3021;51.000;6.980;2023-07-20T03:04:12;68232.41;;;17.27;100.00
5988;BME280;3021;51.000;6.980;2023-07-20T03:06:37;68234.16;;;17.29;100.00
5988;BME280;3021;51.000;6.980;2023-07-20T03:09:03;68242.88;;;17.37;100.00
5988;BME280;3021;51.000;6.980;2023-07-20T03:11:29;68236.00;;;17.33;100.00
5988;BME280;3021;51.000;6.980;2023-07-20T03:13:54;68239.97;;;17.34;100.00
5988;BME280;3021;51.000;6.980;2023-07-20T03:16:20;68236.00;;;17.33;100.00
5988;BME280;3021;51.000;6.980;2023-07-20T03:18:45;68236.59;;;17.34;100.00
5988;BME280;3021;51.000;6.980;2023-07-20T03:21:11;68239.97;;;17.34;100.00
5988;BME280;3021;51.000;6.980;2023-07-20T03:23:37;68238.34;;;17.35;100.00
5988;BME280;3021;51.000;6.980;2023-07-20T03:26:03;68241.25;;;17.38;100.00
5988;BME280;3021;51.000;6.980;2023-07-20T03:28:28;68245.31;;;17.41;100.00
5988;BME280;3021;51.000;6.980;2023-07-20T03:30:54;68238.22;;;17.33;100.00
5988;BME280;3021;51.000;6.980;2023-07-20T03:33:21;68237.19;;;17.34;100.00
5988;BME280;3021;51.000;6.980;2023-07-20T03:35:47;68233.56;;;17.28;100.00
5988;BME280;3021;51.000;6.980;2023-07-20T03:38:12;68223.69;;;17.20;100.00
5988;BME280;3021;51.000;6.980;2023-07-20T03:40:38;68223.81;;;17.22;100.00
5988;BME280;3021;51.000;6.980;2023-07-20T03:43:03;68226.03;;;17.22;100.00
5988;BME280;3021;51.000;6.980;2023-07-20T03:45:28;68228.34;;;17.24;100.00
5988;BME280;3021;51.000;6.980;2023-07-20T03:47:54;68229.06;;;17.27;100.00
5988;BME280;3021;51.000;6.980;2023-07-20T03:50:19;68242.88;;;17.37;100.00
5988;BME280;3021;51.000;6.980;2023-07-20T03:52:44;68239.38;;;17.34;100.00
5988;BME280;3021;51.000;6.980;2023-07-20T03:55:10;68242.88;;;17.37;100.00
5988;BME280;3021;51.000;6.980;2023-07-20T03:57:35;68248.81;;;17.44;100.00
5988;BME280;3021;51.000;6.980;2023-07-20T04:00:00;68262.03;;;17.54;100.00
5988;BME280;3021;51.000;6.980;2023-07-20T04:02:26;68259.13;;;17.51;100.00
5988;BME280;3021;51.000;6.980;2023-07-20T04:04:51;68264.97;;;17.56;100.00
5988;BME280;3021;51.000;6.980;2023-07-20T04:07:16;68268.56;;;17.62;100.00
5988;BME280;3021;51.000;6.980;2023-07-20T04:09:42;68274.25;;;17.65;100.00
5988;BME280;3021;51.000;6.980;2023-07-20T04:12:07;68268.44;;;17.59;100.00
5988;BME280;3021;51.000;6.980;2023-07-20T04:14:32;68274.97;;;17.68;100.00
5988;BME280;3021;51.000;6.980;2023-07-20T04:16:58;68285.41;;;17.77;100.00
5988;BME280;3021;51.000;6.980;2023-07-20T04:19:25;68289.03;;;17.83;100.00
5988;BME280;3021;51.000;6.980;2023-07-20T04:21:50;68295.16;;;17.83;100.00
5988;BME280;3021;51.000;6.980;2023-07-20T04:24:16;68286.00;;;17.77;100.00
5988;BME280;3021;51.000;6.980;2023-07-20T04:26:41;68296.47;;;17.87;100.00
5988;BME280;3021;51.000;6.980;2023-07-20T04:29:06;68302.72;;;17.90;100.00
5988;BME280;3021;51.000;6.980;2023-07-20T04:31:32;68300.41;;;17.88;100.00
5988;BME280;3021;51.000;6.980;2023-07-20T04:33:58;68298.06;;;17.86;100.00
5988;BME280;3021;51.000;6.980;2023-07-20T04:36:23;68290.06;;;17.81;100.00
5988;BME280;3021;51.000;6.980;2023-07-20T04:38:49;68297.03;;;17.87;100.00
5988;BME280;3021;51.000;6.980;2023-07-20T04:41:14;68294.13;;;17.85;100.00
5988;BME280;3021;51.000;6.980;2023-07-20T04:43:43;68304.94;;;17.89;100.00
5988;BME280;3021;51.000;6.980;2023-07-20T04:46:12;68308.56;;;17.95;100.00
5988;BME280;3021;51.000;6.980;2023-07-20T04:48:37;68304.06;;;17.93;100.00
5988;BME280;3021;51.000;6.980;2023-07-20T04:51:03;68299.38;;;17.89;100.00
5988;BME280;3021;51.000;6.980;2023-07-20T04:53:29;68302.44;;;17.94;100.00
5988;BME280;3021;51.000;6.980;2023-07-20T04:55:54;68308.69;;;17.98;100.00
5988;BME280;3021;51.000;6.980;2023-07-20T04:58:23;68337.03;;;18.20;100.00
5988;BME280;3021;51.000;6.980;2023-07-20T05:00:49;68333.69;;;18.20;100.00
5988;BME280;3021;51.000;6.980;2023-07-20T05:03:14;68342.28;;;18.25;100.00
5988;BME280;3021;51.000;6.980;2023-07-20T05:05:39;68340.66;;;18.26;100.00
5988;BME280;3021;51.000;6.980;2023-07-20T05:08:05;68339.94;;;18.23;100.00
5988;BME280;3021;51.000;6.980;2023-07-20T05:10:30;68344.16;;;18.29;100.00
5988;BME280;3021;51.000;6.980;2023-07-20T05:12:55;68336.59;;;18.22;100.00
5988;BME280;3021;51.000;6.980;2023-07-20T05:15:21;68331.38;;;18.18;100.00
5988;BME280;3021;51.000;6.980;2023-07-20T05:17:46;68343.44;;;18.26;100.00
5988;BME280;3021;51.000;6.980;2023-07-20T05:20:14;68331.81;;;18.16;100.00
5988;BME280;3021;51.000;6.980;2023-07-20T05:22:39;68334.16;;;18.18;100.00
5988;BME280;3021;51.000;6.980;2023-07-20T05:25:09;68351.59;;;18.33;100.00
5988;BME280;3021;51.000;6.980;2023-07-20T05:27:39;68407.88;;;18.80;100.00
5988;BME280;3021;51.000;6.980;2023-07-20T05:30:05;68506.38;;;19.70;100.00
5988;BME280;3021;51.000;6.980;2023-07-20T05:32:32;68537.38;;;20.00;100.00
5988;BME280;3021;51.000;6.980;2023-07-20T05:34:57;68528.50;;;19.90;100.00
5988;BME280;3021;51.000;6.980;2023-07-20T05:37:23;68481.59;;;19.53;100.00
5988;BME280;3021;51.000;6.980;2023-07-20T05:39:48;68474.47;;;19.44;100.00
5988;BME280;3021;51.000;6.980;2023-07-20T05:42:13;68460.06;;;19.34;100.00
5988;BME280;3021;51.000;6.980;2023-07-20T05:44:39;68453.66;;;19.28;100.00
5988;BME280;3021;51.000;6.980;2023-07-20T05:47:05;68462.28;;;19.33;100.00
5988;BME280;3021;51.000;6.980;2023-07-20T05:49:30;68467.50;;;19.38;100.00
5988;BME280;3021;51.000;6.980;2023-07-20T05:51:56;68450.63;;;19.23;100.00
5988;BME280;3021;51.000;6.980;2023-07-20T05:54:23;68441.91;;;19.15;100.00
5988;BME280;3021;51.000;6.980;2023-07-20T05:56:49;68443.50;;;19.14;100.00
5988;BME280;3021;51.000;6.980;2023-07-20T05:59:14;68461.81;;;19.36;100.00
5988;BME280;3021;51.000;6.980;2023-07-20T06:01:40;68498.34;;;19.65;100.00
5988;BME280;3021;51.000;6.980;2023-07-20T06:04:05;68498.94;;;19.66;100.00
5988;BME280;3021;51.000;6.980;2023-07-20T06:06:30;68549.72;;;20.13;100.00
5988;BME280;3021;51.000;6.980;2023-07-20T06:08:56;68589.06;;;20.43;100.00
5988;BME280;3021;51.000;6.980;2023-07-20T06:11:21;68614.84;;;20.68;100.00
5988;BME280;3021;51.000;6.980;2023-07-20T06:13:46;68641.66;;;20.92;100.00
5988;BME280;3021;51.000;6.980;2023-07-20T06:16:12;68633.63;;;20.87;100.00
5988;BME280;3021;51.000;6.980;2023-07-20T06:18:37;68628.38;;;20.83;100.00
5988;BME280;3021;51.000;6.980;2023-07-20T06:21:03;68638.28;;;20.92;100.00
5988;BME280;3021;51.000;6.980;2023-07-20T06:23:28;68694.94;;;21.44;100.00
5988;BME280;3021;51.000;6.980;2023-07-20T06:25:53;68714.06;;;21.58;100.00
5988;BME280;3021;51.000;6.980;2023-07-20T06:28:19;68664.50;;;21.15;100.00
5988;BME280;3021;51.000;6.980;2023-07-20T06:30:44;68632.91;;;20.84;100.00
5988;BME280;3021;51.000;6.980;2023-07-20T06:33:10;68615.44;;;20.69;100.00
5988;BME280;3021;51.000;6.980;2023-07-20T06:35:35;68624.63;;;20.75;100.00
5988;BME280;3021;51.000;6.980;2023-07-20T06:38:01;68620.69;;;20.74;100.00
5988;BME280;3021;51.000;6.980;2023-07-20T06:40:31;68606.69;;;20.61;100.00
5988;BME280;3021;51.000;6.980;2023-07-20T06:42:57;68617.06;;;20.68;100.00
5988;BME280;3021;51.000;6.980;2023-07-20T06:45:22;68632.19;;;20.81;100.00
5988;BME280;3021;51.000;6.980;2023-07-20T06:47:48;68627.09;;;20.79;100.00
5988;BME280;3021;51.000;6.980;2023-07-20T06:50:13;68612.06;;;20.68;100.00
5988;BME280;3021;51.000;6.980;2023-07-20T06:52:39;68632.91;;;20.84;100.00
5988;BME280;3021;51.000;6.980;2023-07-20T06:55:05;68649.81;;;20.99;100.00
5988;BME280;3021;51.000;6.980;2023-07-20T06:57:31;68640.50;;;20.91;100.00
5988;BME280;3021;51.000;6.980;2023-07-20T06:59:56;68616.16;;;20.72;100.00
5988;BME280;3021;51.000;6.980;2023-07-20T07:02:22;68606.09;;;20.61;100.00
5988;BME280;3021;51.000;6.980;2023-07-20T07:04:47;68610.91;;;20.67;100.00
5988;BME280;3021;51.000;6.980;2023-07-20T07:07:15;68628.84;;;20.81;100.00
5988;BME280;3021;51.000;6.980;2023-07-20T07:09:41;68651.09;;;21.03;100.00
5988;BME280;3021;51.000;6.980;2023-07-20T07:12:07;68666.13;;;21.14;100.00
5988;BME280;3021;51.000;6.980;2023-07-20T07:14:33;68725.72;;;21.69;100.00
5988;BME280;3021;51.000;6.980;2023-07-20T07:16:59;68818.34;;;22.48;100.00
5988;BME280;3021;51.000;6.980;2023-07-20T07:19:24;68869.69;;;22.93;100.00
5988;BME280;3021;51.000;6.980;2023-07-20T07:21:49;68873.19;;;22.97;100.00
5988;BME280;3021;51.000;6.980;2023-07-20T07:24:16;68864.41;;;22.89;100.00
5988;BME280;3021;51.000;6.980;2023-07-20T07:26:41;68837.00;;;22.65;100.00
5988;BME280;3021;51.000;6.980;2023-07-20T07:29:06;68816.59;;;22.47;100.00
5988;BME280;3021;51.000;6.980;2023-07-20T07:31:34;68809.00;;;22.40;100.00
5988;BME280;3021;51.000;6.980;2023-07-20T07:34:00;68843.53;;;22.73;100.00
5988;BME280;3021;51.000;6.980;2023-07-20T07:36:26;68933.31;;;23.50;100.00
5988;BME280;3021;51.000;6.980;2023-07-20T07:38:51;69005.84;;;24.16;100.00
5988;BME280;3021;51.000;6.980;2023-07-20T07:41:16;69085.31;;;24.86;100.00
5988;BME280;3021;51.000;6.980;2023-07-20T07:43:42;69054.47;;;24.61;100.00
5988;BME280;3021;51.000;6.980;2023-07-20T07:46:07;68981.31;;;23.94;100.00
5988;BME280;3021;51.000;6.980;2023-07-20T07:48:33;68911.69;;;23.30;100.00
5988;BME280;3021;51.000;6.980;2023-07-20T07:50:58;68857.41;;;22.83;100.00
5988;BME280;3021;51.000;6.980;2023-07-20T07:53:23;68821.13;;;22.48;100.00
5988;BME280;3021;51.000;6.980;2023-07-20T07:55:51;68801.53;;;22.36;100.00
5988;BME280;3021;51.000;6.980;2023-07-20T07:58:16;68795.09;;;22.30;100.00
5988;BME280;3021;51.000;6.980;2023-07-20T08:00:41;68767.69;;;22.06;100.00
5988;BME280;3021;51.000;6.980;2023-07-20T08:03:08;68792.66;;;22.25;100.00
5988;BME280;3021;51.000;6.980;2023-07-20T08:05:33;68854.38;;;22.77;100.00
5988;BME280;3021;51.000;6.980;2023-07-20T08:08:00;68944.41;;;23.59;100.00
5988;BME280;3021;51.000;6.980;2023-07-20T08:10:25;68986.00;;;23.98;100.00
5988;BME280;3021;51.000;6.980;2023-07-20T08:12:51;69046.84;;;24.55;100.00
5988;BME280;3021;51.000;6.980;2023-07-20T08:15:16;69125.63;;;25.22;100.00
5988;BME280;3021;51.000;6.980;2023-07-20T08:17:42;69236.16;;;26.19;100.00
5988;BME280;3021;51.000;6.980;2023-07-20T08:20:09;69229.59;;;26.11;100.00
5988;BME280;3021;51.000;6.980;2023-07-20T08:22:37;69106.94;;;25.05;100.00
5988;BME280;3021;51.000;6.980;2023-07-20T08:25:04;69046.63;;;24.49;100.00
5988;BME280;3021;51.000;6.980;2023-07-20T08:27:29;69061.94;;;24.65;100.00
5988;BME280;3021;51.000;6.980;2023-07-20T08:29:54;69182.81;;;25.69;100.00
5988;BME280;3021;51.000;6.980;2023-07-20T08:32:20;69278.28;;;26.56;100.00
5988;BME280;3021;51.000;6.980;2023-07-20T08:34:45;69365.94;;;27.31;100.00
5988;BME280;3021;51.000;6.980;2023-07-20T08:37:11;69436.22;;;27.92;100.00
5988;BME280;3021;51.000;6.980;2023-07-20T08:39:36;69538.88;;;28.85;100.00
5988;BME280;3021;51.000;6.980;2023-07-20T08:42:02;69670.78;;;30.01;100.00
5988;BME280;3021;51.000;6.980;2023-07-20T08:44:35;69782.94;;;31.02;100.00
5988;BME280;3021;51.000;6.980;2023-07-20T08:47:02;69806.31;;;31.20;100.00
5988;BME280;3021;51.000;6.980;2023-07-20T08:49:31;69654.97;;;29.87;100.00
5988;BME280;3021;51.000;6.980;2023-07-20T08:51:57;69456.84;;;28.13;100.00
5988;BME280;3021;51.000;6.980;2023-07-20T08:54:25;69326.28;;;26.98;100.00
5988;BME280;3021;51.000;6.980;2023-07-20T08:56:52;69257.69;;;26.35;100.00
5988;BME280;3021;51.000;6.980;2023-07-20T08:59:17;69216.75;;;25.99;100.00
5988;BME280;3021;51.000;6.980;2023-07-20T09:01:43;69799.28;;;31.14;100.00
5988;BME280;3021;51.000;6.980;2023-07-20T09:04:10;70539.78;;;37.65;98.91
5988;BME280;3021;51.000;6.980;2023-07-20T09:06:36;70691.31;;;38.97;86.02
5988;BME280;3021;51.000;6.980;2023-07-20T09:09:01;70199.41;;;34.65;93.58
5988;BME280;3021;51.000;6.980;2023-07-20T09:11:27;69839.75;;;31.49;100.00
5988;BME280;3021;51.000;6.980;2023-07-20T09:14:11;69822.06;;;31.31;100.00
5988;BME280;3021;51.000;6.980;2023-07-20T09:16:55;69548.72;;;28.91;100.00
5988;BME280;3021;51.000;6.980;2023-07-20T09:19:21;69873.25;;;31.79;100.00
5988;BME280;3021;51.000;6.980;2023-07-20T09:21:51;70105.44;;;33.85;100.00
5988;BME280;3021;51.000;6.980;2023-07-20T09:24:20;69930.63;;;32.24;100.00
5988;BME280;3021;51.000;6.980;2023-07-20T09:26:47;69675.50;;;30.05;100.00
5988;BME280;3021;51.000;6.980;2023-07-20T09:29:13;69504.78;;;28.53;100.00
5988;BME280;3021;51.000;6.980;2023-07-20T09:31:39;69395.84;;;27.57;100.00
5988;BME280;3021;51.000;6.980;2023-07-20T09:34:07;69457.34;;;28.11;100.00
5988;BME280;3021;51.000;6.980;2023-07-20T09:36:34;69471.38;;;28.23;100.00
5988;BME280;3021;51.000;6.980;2023-07-20T09:39:00;69404.03;;;27.64;100.00
5988;BME280;3021;51.000;6.980;2023-07-20T09:41:26;69582.25;;;29.23;100.00
5988;BME280;3021;51.000;6.980;2023-07-20T09:43:52;69963.69;;;32.58;100.00
5988;BME280;3021;51.000;6.980;2023-07-20T09:46:18;70057.13;;;33.40;100.00
5988;BME280;3021;51.000;6.980;2023-07-20T09:48:54;69961.22;;;32.53;100.00
5988;BME280;3021;51.000;6.980;2023-07-20T09:51:23;69791.66;;;31.07;100.00
5988;BME280;3021;51.000;6.980;2023-07-20T09:53:52;69800.94;;;31.13;100.00
5988;BME280;3021;51.000;6.980;2023-07-20T09:56:21;69697.66;;;30.22;100.00
5988;BME280;3021;51.000;6.980;2023-07-20T09:58:47;69677.81;;;30.07;100.00
5988;BME280;3021;51.000;6.980;2023-07-20T10:01:20;69688.84;;;30.14;100.00
5988;BME280;3021;51.000;6.980;2023-07-20T10:03:47;69807.97;;;31.19;100.00
5988;BME280;3021;51.000;6.980;2023-07-20T10:06:15;69768.75;;;30.87;100.00
5988;BME280;3021;51.000;6.980;2023-07-20T10:08:47;69624.56;;;29.63;100.00
5988;BME280;3021;51.000;6.980;2023-07-20T10:11:15;69497.25;;;28.49;100.00
5988;BME280;3021;51.000;6.980;2023-07-20T10:13:43;69439.13;;;27.95;100.00
5988;BME280;3021;51.000;6.980;2023-07-20T10:16:13;69407.06;;;27.69;100.00
5988;BME280;3021;51.000;6.980;2023-07-20T10:21:35;70252.97;;;35.11;100.00
5988;BME280;3021;51.000;6.980;2023-07-20T10:24:02;70552.25;;;37.78;88.53
5988;BME280;3021;51.000;6.980;2023-07-20T10:26:28;70525.66;;;37.52;86.72
5988;BME280;3021;51.000;6.980;2023-07-20T10:28:54;70544.41;;;37.66;85.31
5988;BME280;3021;51.000;6.980;2023-07-20T10:31:19;70474.97;;;37.08;83.67
5988;BME280;3021;51.000;6.980;2023-07-20T10:33:45;70320.53;;;35.68;85.15
5988;BME280;3021;51.000;6.980;2023-07-20T10:36:11;70117.69;;;33.93;88.55
5988;BME280;3021;51.000;6.980;2023-07-20T10:38:41;69926.00;;;32.22;93.31
5988;BME280;3021;51.000;6.980;2023-07-20T10:43:43;69653.78;;;29.86;96.84
5988;BME280;3021;51.000;6.980;2023-07-20T10:46:11;69595.25;;;29.37;100.00
5988;BME280;3021;51.000;6.980;2023-07-20T10:49:00;69588.69;;;29.29;100.00
5988;BME280;3021;51.000;6.980;2023-07-20T10:51:27;69549.31;;;28.92;100.00
5988;BME280;3021;51.000;6.980;2023-07-20T10:53:52;69542.41;;;28.88;100.00
5988;BME280;3021;51.000;6.980;2023-07-20T10:56:21;69688.38;;;30.16;100.00
5988;BME280;3021;51.000;6.980;2023-07-20T10:58:47;69991.91;;;32.83;100.00
5988;BME280;3021;51.000;6.980;2023-07-20T11:01:16;70205.31;;;34.70;97.78
5988;BME280;3021;51.000;6.980;2023-07-20T11:03:42;70424.34;;;36.64;85.83
5988;BME280;3021;51.000;6.980;2023-07-20T11:06:29;70241.78;;;35.02;84.55
5988;BME280;3021;51.000;6.980;2023-07-20T11:09:11;70378.91;;;36.22;79.32
5988;BME280;3021;51.000;6.980;2023-07-20T11:11:44;70479.03;;;37.09;77.45
5988;BME280;3021;51.000;6.980;2023-07-20T11:14:25;70335.97;;;35.84;77.75
5988;BME280;3021;51.000;6.980;2023-07-20T11:16:52;70119.94;;;33.92;80.48
5988;BME280;3021;51.000;6.980;2023-07-20T11:19:18;70341.91;;;35.92;79.75
5988;BME280;3021;51.000;6.980;2023-07-20T11:21:50;70224.72;;;34.87;81.00
5988;BME280;3021;51.000;6.980;2023-07-20T11:24:16;70061.34;;;33.46;82.62
5988;BME280;3021;51.000;6.980;2023-07-20T11:26:46;69911.31;;;32.10;87.07
5988;BME280;3021;51.000;6.980;2023-07-20T11:29:13;69775.09;;;30.90;93.79
5988;BME280;3021;51.000;6.980;2023-07-20T11:31:39;69717.72;;;30.42;92.75
5988;BME280;3021;51.000;6.980;2023-07-20T11:34:05;69701.19;;;30.25;93.39
5988;BME280;3021;51.000;6.980;2023-07-20T11:36:31;69670.56;;;29.96;96.19
5988;BME280;3021;51.000;6.980;2023-07-20T11:38:58;69688.38;;;30.16;93.92
5988;BME280;3021;51.000;6.980;2023-07-20T11:41:24;69789.28;;;31.05;91.56
5988;BME280;3021;51.000;6.980;2023-07-20T11:43:50;69924.34;;;32.24;90.20
5988;BME280;3021;51.000;6.980;2023-07-20T11:46:15;69866.78;;;31.73;90.59
5988;BME280;3021;51.000;6.980;2023-07-20T11:48:41;69724.28;;;30.50;95.47
5988;BME280;3021;51.000;6.980;2023-07-20T11:51:13;69598.56;;;29.35;97.50
5988;BME280;3021;51.000;6.980;2023-07-20T11:53:38;69496.47;;;28.43;100.00
5988;BME280;3021;51.000;6.980;2023-07-20T11:56:06;69408.72;;;27.68;100.00
5988;BME280;3021;51.000;6.980;2023-07-20T11:58:31;69354.25;;;27.20;100.00
5988;BME280;3021;51.000;6.980;2023-07-20T12:00:57;69323.81;;;26.94;100.00
5988;BME280;3021;51.000;6.980;2023-07-20T12:03:22;69285.19;;;26.60;100.00
5988;BME280;3021;51.000;6.980;2023-07-20T12:05:48;69251.38;;;26.32;100.00
5988;BME280;3021;51.000;6.980;2023-07-20T12:08:15;69233.81;;;26.17;100.00
5988;BME280;3021;51.000;6.980;2023-07-20T12:10:41;69246.56;;;26.26;100.00
5988;BME280;3021;51.000;6.980;2023-07-20T12:13:10;69260.03;;;26.37;100.00
5988;BME280;3021;51.000;6.980;2023-07-20T12:15:36;69251.25;;;26.30;100.00
5988;BME280;3021;51.000;6.980;2023-07-20T12:18:02;69256.53;;;26.34;100.00
5988;BME280;3021;51.000;6.980;2023-07-20T12:20:36;69286.94;;;26.61;100.00
5988;BME280;3021;51.000;6.980;2023-07-20T12:23:12;69291.63;;;26.65;100.00
5988;BME280;3021;51.000;6.980;2023-07-20T12:25:41;69268.69;;;26.43;100.00
5988;BME280;3021;51.000;6.980;2023-07-20T12:28:12;69211.00;;;25.97;100.00
5988;BME280;3021;51.000;6.980;2023-07-20T12:30:39;69176.41;;;25.64;100.00
5988;BME280;3021;51.000;6.980;2023-07-20T12:33:05;69166.47;;;25.55;100.00
5988;BME280;3021;51.000;6.980;2023-07-20T12:35:31;69168.31;;;25.59;100.00
5988;BME280;3021;51.000;6.980;2023-07-20T12:37:57;69170.53;;;25.59;100.00
5988;BME280;3021;51.000;6.980;2023-07-20T12:40:22;69177.44;;;25.62;100.00
5988;BME280;3021;51.000;6.980;2023-07-20T12:42:47;69199.19;;;25.84;100.00
5988;BME280;3021;51.000;6.980;2023-07-20T12:45:13;69213.22;;;25.96;100.00
5988;BME280;3021;51.000;6.980;2023-07-20T12:47:39;69242.59;;;26.25;100.00
5988;BME280;3021;51.000;6.980;2023-07-20T12:50:05;69269.97;;;26.46;100.00
5988;BME280;3021;51.000;6.980;2023-07-20T12:52:31;69306.16;;;26.76;100.00
5988;BME280;3021;51.000;6.980;2023-07-20T12:54:57;69340.78;;;27.08;100.00
5988;BME280;3021;51.000;6.980;2023-07-20T12:57:23;69374.88;;;27.41;100.00
5988;BME280;3021;51.000;6.980;2023-07-20T12:59:48;69414.66;;;27.76;100.00
5988;BME280;3021;51.000;6.980;2023-07-20T13:02:14;69446.09;;;27.99;100.00
5988;BME280;3021;51.000;6.980;2023-07-20T13:04:39;69439.25;;;27.98;100.00
5988;BME280;3021;51.000;6.980;2023-07-20T13:07:04;69458.59;;;28.15;100.00
5988;BME280;3021;51.000;6.980;2023-07-20T13:09:30;69464.34;;;28.17;100.00
5988;BME280;3021;51.000;6.980;2023-07-20T13:11:55;69412.34;;;27.74;100.00
5988;BME280;3021;51.000;6.980;2023-07-20T13:14:22;69385.88;;;27.48;100.00
5988;BME280;3021;51.000;6.980;2023-07-20T13:16:47;69361.75;;;27.24;100.00
5988;BME280;3021;51.000;6.980;2023-07-20T13:19:13;69322.06;;;26.92;100.00
5988;BME280;3021;51.000;6.980;2023-07-20T13:21:38;69318.66;;;26.92;100.00